Time;durP1;ratioP1;P1;durP2;ratioP2;P2;SDS_P1;SDS_P2;PMS_P1;PMS_P2;Temp;Humidity;BMP_temperature;BMP_pressure;BME280_temperature;BME280_humidity;BME280_pressure;Samples;Min_cycle;Max_cycle;Signal;HPM_P1;HPM_P2
2024/01/26 00:01:08;;;;;;;12.57;2.53;;;;;;;;;;5074425;28;20509;-26
2024/01/26 00:03:35;;;;;;;12.63;2.88;;;;;;;;;;5074404;28;20028;-26
2024/01/26 00:06:02;;;;;;;15.35;2.75;;;;;;;;;;5089840;28;20100;-26
2024/01/26 00:08:29;;;;;;;10.27;2.22;;;;;;;;;;5073983;28;20017;-24
2024/01/26 00:10:55;;;;;;;9.23;2.47;;;;;;;;;;5070056;28;20409;-25
2024/01/26 00:13:22;;;;;;;14.93;2.50;;;;;;;;;;5074153;28;20029;-27
2024/01/26 00:15:50;;;;;;;11.63;3.00;;;;;;;;;;5074245;28;20501;-25
2024/01/26 00:18:17;;;;;;;12.60;2.63;;;;;;;;;;5073878;28;20036;-26
2024/01/26 00:20:44;;;;;;;12.40;2.85;;;;;;;;;;5072898;28;20024;-25
2024/01/26 00:23:11;;;;;;;12.23;2.67;;;;;;;;;;5070449;28;20492;-26
2024/01/26 00:25:38;;;;;;;12.95;2.72;;;;;;;;;;5073983;28;20146;-26
2024/01/26 00:28:05;;;;;;;10.55;2.92;;;;;;;;;;5073885;28;20028;-25
2024/01/26 00:30:32;;;;;;;10.50;2.53;;;;;;;;;;5073723;28;20509;-26
2024/01/26 00:32:59;;;;;;;8.02;2.30;;;;;;;;;;5071334;28;20706;-26
2024/01/26 00:35:26;;;;;;;12.85;2.92;;;;;;;;;;5071899;28;20391;-27
2024/01/26 00:37:53;;;;;;;13.77;2.63;;;;;;;;;;5073607;28;20021;-26
2024/01/26 00:40:20;;;;;;;11.88;2.65;;;;;;;;;;5073695;28;20027;-28
2024/01/26 00:42:47;;;;;;;14.50;2.50;;;;;;;;;;5073529;28;20032;-28
2024/01/26 00:45:14;;;;;;;13.48;2.75;;;;;;;;;;5070668;28;20017;-26
2024/01/26 00:47:41;;;;;;;9.88;2.20;;;;;;;;;;5072191;28;20032;-26
2024/01/26 00:50:08;;;;;;;10.48;2.45;;;;;;;;;;5073567;28;20031;-27
2024/01/26 00:52:35;;;;;;;14.93;2.55;;;;;;;;;;5073255;28;20486;-27
2024/01/26 00:55:02;;;;;;;17.30;2.70;;;;;;;;;;5073270;28;20043;-31
2024/01/26 00:57:29;;;;;;;9.82;2.67;;;;;;;;;;5069426;28;20104;-28
2024/01/26 00:59:56;;;;;;;12.68;3.17;;;;;;;;;;5073241;28;20028;-26
2024/01/26 01:02:23;;;;;;;11.48;3.30;;;;;;;;;;5072948;28;20048;-27
2024/01/26 01:04:50;;;;;;;6.90;2.25;;;;;;;;;;5073062;28;20031;-26
2024/01/26 01:07:17;;;;;;;9.70;2.40;;;;;;;;;;5073150;28;20070;-26
2024/01/26 01:09:44;;;;;;;8.18;2.78;;;;;;;;;;5068835;28;20390;-28
2024/01/26 01:12:11;;;;;;;9.30;2.47;;;;;;;;;;5072948;28;20487;-26
2024/01/26 01:14:40;;;;;;;13.07;2.55;;;;;;;;;;5073004;28;20032;-27
2024/01/26 01:17:09;;;;;;;11.48;2.70;;;;;;;;;;5072652;28;20427;-25
2024/01/26 01:19:36;;;;;;;8.95;2.88;;;;;;;;;;5072021;28;20467;-26
2024/01/26 01:22:03;;;;;;;8.90;3.13;;;;;;;;;;5069266;28;20595;-26
2024/01/26 01:24:30;;;;;;;12.05;3.15;;;;;;;;;;5072783;28;20021;-27
2024/01/26 01:26:57;;;;;;;8.93;2.75;;;;;;;;;;5072563;28;20029;-27
2024/01/26 01:29:24;;;;;;;10.43;2.42;;;;;;;;;;5072672;28;20046;-29
2024/01/26 01:31:51;;;;;;;8.50;2.63;;;;;;;;;;5070214;28;20048;-26
2024/01/26 01:34:18;;;;;;;9.88;2.35;;;;;;;;;;5090131;28;20537;-28
2024/01/26 01:36:45;;;;;;;9.38;2.90;;;;;;;;;;5092474;28;20111;-26
2024/01/26 01:39:12;;;;;;;8.18;2.50;;;;;;;;;;5092753;28;20024;-27
2024/01/26 01:41:39;;;;;;;10.65;2.85;;;;;;;;;;5092690;28;20032;-26
2024/01/26 01:44:06;;;;;;;11.45;2.75;;;;;;;;;;5089541;28;20028;-25
2024/01/26 01:46:33;;;;;;;9.40;2.72;;;;;;;;;;5091329;28;20027;-25
2024/01/26 01:49:00;;;;;;;11.70;2.55;;;;;;;;;;5092545;28;20024;-27
2024/01/26 01:51:28;;;;;;;7.28;2.63;;;;;;;;;;5092487;28;20394;-26
2024/01/26 01:53:56;;;;;;;8.63;2.47;;;;;;;;;;5092399;28;20548;-26
2024/01/26 01:56:24;;;;;;;10.63;2.75;;;;;;;;;;5087816;28;20035;-27
2024/01/26 01:58:52;;;;;;;9.50;2.78;;;;;;;;;;5092099;28;20034;-26
2024/01/26 02:01:19;;;;;;;8.70;2.47;;;;;;;;;;5091139;28;20036;-29
2024/01/26 02:03:46;;;;;;;10.10;3.17;;;;;;;;;;5092128;28;20463;-26
2024/01/26 02:06:13;;;;;;;8.43;2.50;;;;;;;;;;5092184;28;20039;-26
2024/01/26 02:08:40;;;;;;;10.02;2.60;;;;;;;;;;5087659;28;20505;-26
2024/01/26 02:11:07;;;;;;;10.25;2.78;;;;;;;;;;5092121;28;20024;-28
2024/01/26 02:13:34;;;;;;;9.77;3.08;;;;;;;;;;5091512;28;20028;-27
2024/01/26 02:16:01;;;;;;;9.90;2.55;;;;;;;;;;5092159;28;20028;-27
2024/01/26 02:18:29;;;;;;;11.15;2.78;;;;;;;;;;5090918;28;20035;-25
2024/01/26 02:20:56;;;;;;;11.88;3.10;;;;;;;;;;5088578;28;20016;-27
2024/01/26 02:23:23;;;;;;;8.10;2.65;;;;;;;;;;5091940;28;20091;-26
2024/01/26 02:25:51;;;;;;;9.88;2.25;;;;;;;;;;5091986;28;20024;-26
2024/01/26 02:28:18;;;;;;;6.90;2.45;;;;;;;;;;5091972;28;20024;-28
2024/01/26 02:30:45;;;;;;;8.13;2.90;;;;;;;;;;5089689;28;20580;-26
2024/01/26 02:33:14;;;;;;;7.75;2.50;;;;;;;;;;5089048;28;20048;-25
2024/01/26 02:35:41;;;;;;;12.93;2.53;;;;;;;;;;5091879;28;20397;-26
2024/01/26 02:38:08;;;;;;;7.90;2.08;;;;;;;;;;5091706;28;20028;-26
2024/01/26 02:40:35;;;;;;;7.85;2.50;;;;;;;;;;5091726;28;20043;-26
2024/01/26 02:43:02;;;;;;;6.85;2.30;;;;;;;;;;5088531;28;20039;-25
2024/01/26 02:45:29;;;;;;;8.68;2.55;;;;;;;;;;5090104;28;20016;-26
2024/01/26 02:47:56;;;;;;;10.48;2.55;;;;;;;;;;5091792;28;20473;-26
2024/01/26 02:50:23;;;;;;;7.50;2.35;;;;;;;;;;5091715;28;20051;-26
2024/01/26 02:52:50;;;;;;;8.60;2.70;;;;;;;;;;5091540;28;20044;-26
2024/01/26 02:55:17;;;;;;;6.18;2.50;;;;;;;;;;5087650;28;20499;-26
2024/01/26 02:57:44;;;;;;;8.13;2.30;;;;;;;;;;5091043;28;20032;-26
2024/01/26 03:00:11;;;;;;;8.13;2.40;;;;;;;;;;5091597;28;20440;-26
2024/01/26 03:02:38;;;;;;;5.72;2.42;;;;;;;;;;5091638;28;20036;-27
2024/01/26 03:05:06;;;;;;;6.50;2.35;;;;;;;;;;5091444;28;20047;-26
2024/01/26 03:07:32;;;;;;;7.55;2.17;;;;;;;;;;5086981;28;20028;-27
2024/01/26 03:09:59;;;;;;;6.93;2.17;;;;;;;;;;5091609;28;20024;-27
2024/01/26 03:12:26;;;;;;;6.28;2.13;;;;;;;;;;5091465;28;20071;-27
2024/01/26 03:14:53;;;;;;;6.68;2.30;;;;;;;;;;5091304;28;20032;-27
2024/01/26 03:17:20;;;;;;;6.68;1.98;;;;;;;;;;5091034;28;20456;-25
2024/01/26 03:19:47;;;;;;;6.10;2.42;;;;;;;;;;5087177;28;20028;-26
2024/01/26 03:22:14;;;;;;;8.98;1.85;;;;;;;;;;5091342;28;20467;-27
2024/01/26 03:24:44;;;;;;;11.70;2.67;;;;;;;;;;5092267;28;20533;-27
2024/01/26 03:27:11;;;;;;;9.18;2.78;;;;;;;;;;5095319;28;20036;-26
2024/01/26 03:29:38;;;;;;;9.38;2.90;;;;;;;;;;5094266;28;20038;-26
2024/01/26 03:32:05;;;;;;;6.20;2.28;;;;;;;;;;5091457;28;20044;-25
2024/01/26 03:34:32;;;;;;;4.45;2.25;;;;;;;;;;5095119;28;20028;-27
2024/01/26 03:36:59;;;;;;;9.32;2.25;;;;;;;;;;5094993;28;20020;-27
2024/01/26 03:39:26;;;;;;;8.38;2.45;;;;;;;;;;5095108;28;20032;-26
2024/01/26 03:41:53;;;;;;;5.90;2.08;;;;;;;;;;5093522;28;20444;-27
2024/01/26 03:44:19;;;;;;;7.53;2.33;;;;;;;;;;5091848;28;20482;-26
2024/01/26 03:46:47;;;;;;;10.15;2.17;;;;;;;;;;5094923;28;20039;-27
2024/01/26 03:49:14;;;;;;;7.30;2.25;;;;;;;;;;5094817;28;20110;-26
2024/01/26 03:51:41;;;;;;;7.68;1.92;;;;;;;;;;5094738;28;20424;-27
2024/01/26 03:54:08;;;;;;;9.82;2.47;;;;;;;;;;5092725;28;20202;-26
2024/01/26 03:56:35;;;;;;;5.95;2.03;;;;;;;;;;5092435;28;20028;-25
2024/01/26 03:59:02;;;;;;;8.38;2.15;;;;;;;;;;5094544;28;20024;-26
2024/01/26 04:01:29;;;;;;;8.82;1.98;;;;;;;;;;5094750;28;20024;-28
2024/01/26 04:03:56;;;;;;;6.18;1.88;;;;;;;;;;5094544;28;20047;-27
2024/01/26 04:06:23;;;;;;;6.63;2.03;;;;;;;;;;5091564;28;20031;-27
2024/01/26 04:08:51;;;;;;;8.32;2.10;;;;;;;;;;5092941;28;20024;-26
2024/01/26 04:11:18;;;;;;;9.60;1.95;;;;;;;;;;5094417;28;20489;-27
2024/01/26 04:13:45;;;;;;;8.07;1.83;;;;;;;;;;5094359;28;20478;-26
2024/01/26 04:16:12;;;;;;;7.10;1.77;;;;;;;;;;5094416;28;20024;-27
2024/01/26 04:18:38;;;;;;;8.75;2.15;;;;;;;;;;5090545;28;20059;-26
2024/01/26 04:21:07;;;;;;;9.63;2.15;;;;;;;;;;5093416;28;20039;-26
2024/01/26 04:23:34;;;;;;;7.57;2.42;;;;;;;;;;5094166;28;20056;-27
2024/01/26 04:26:01;;;;;;;8.27;1.70;;;;;;;;;;5094191;28;20435;-27
2024/01/26 04:28:28;;;;;;;8.13;1.90;;;;;;;;;;5094223;28;20504;-25
2024/01/26 04:30:55;;;;;;;8.05;2.00;;;;;;;;;;5089522;28;20084;-28
2024/01/26 04:33:21;;;;;;;10.18;2.22;;;;;;;;;;5093629;28;20035;-26
2024/01/26 04:35:48;;;;;;;11.23;2.40;;;;;;;;;;5093701;28;20031;-27
2024/01/26 04:38:15;;;;;;;7.40;2.08;;;;;;;;;;5093453;28;20367;-26
2024/01/26 04:40:42;;;;;;;11.32;2.10;;;;;;;;;;5093900;28;20027;-25
2024/01/26 04:43:09;;;;;;;3.95;1.60;;;;;;;;;;5089305;28;20055;-27
2024/01/26 04:45:36;;;;;;;5.47;1.50;;;;;;;;;;5093842;28;20032;-26
2024/01/26 04:48:04;;;;;;;6.20;1.92;;;;;;;;;;5093789;28;20529;-26
2024/01/26 04:50:31;;;;;;;7.90;2.00;;;;;;;;;;5093676;28;20607;-26
2024/01/26 04:52:58;;;;;;;5.35;1.88;;;;;;;;;;5093481;28;20032;-25
2024/01/26 04:55:26;;;;;;;7.70;1.83;;;;;;;;;;5089086;28;20508;-26
2024/01/26 04:57:53;;;;;;;7.88;1.92;;;;;;;;;;5093367;28;20107;-27
2024/01/26 05:00:20;;;;;;;6.63;2.00;;;;;;;;;;5093608;28;20073;-27
2024/01/26 05:02:47;;;;;;;8.18;2.13;;;;;;;;;;5093388;28;20099;-27
2024/01/26 05:05:14;;;;;;;7.07;1.98;;;;;;;;;;5093090;28;20028;-28
2024/01/26 05:07:42;;;;;;;8.27;1.80;;;;;;;;;;5089259;28;20051;-28
2024/01/26 05:10:09;;;;;;;9.27;1.98;;;;;;;;;;5093416;28;20020;-26
2024/01/26 05:12:36;;;;;;;7.65;2.10;;;;;;;;;;5093158;28;20043;-26
2024/01/26 05:15:03;;;;;;;9.20;1.80;;;;;;;;;;5093184;28;20445;-26
2024/01/26 05:17:30;;;;;;;8.80;1.92;;;;;;;;;;5090542;28;20106;-25
2024/01/26 05:19:57;;;;;;;4.82;1.45;;;;;;;;;;5089668;28;20518;-28
2024/01/26 05:22:24;;;;;;;7.65;1.95;;;;;;;;;;5093153;28;20059;-25
2024/01/26 05:24:51;;;;;;;5.95;1.60;;;;;;;;;;5092916;28;20074;-27
2024/01/26 05:27:18;;;;;;;5.20;1.67;;;;;;;;;;5093049;28;20752;-27
2024/01/26 05:29:45;;;;;;;4.25;1.50;;;;;;;;;;5091470;28;20032;-26
2024/01/26 05:32:12;;;;;;;8.85;2.20;;;;;;;;;;5089968;28;20052;-26
2024/01/26 05:34:39;;;;;;;5.07;1.50;;;;;;;;;;5091565;28;20077;-26
2024/01/26 05:37:07;;;;;;;6.00;1.70;;;;;;;;;;5092796;28;20038;-26
2024/01/26 05:39:34;;;;;;;7.38;1.80;;;;;;;;;;5092683;28;20028;-29
2024/01/26 05:42:01;;;;;;;6.63;1.98;;;;;;;;;;5089813;28;20629;-25
2024/01/26 05:44:28;;;;;;;5.93;1.50;;;;;;;;;;5091036;28;20520;-25
2024/01/26 05:46:55;;;;;;;7.38;1.58;;;;;;;;;;5092614;28;20028;-26
2024/01/26 05:49:25;;;;;;;6.50;1.73;;;;;;;;;;5091610;28;20420;-26
2024/01/26 05:51:52;;;;;;;9.90;1.77;;;;;;;;;;5092518;28;20028;-27
2024/01/26 05:54:19;;;;;;;7.22;1.83;;;;;;;;;;5088710;28;20035;-26
2024/01/26 05:56:46;;;;;;;5.10;1.67;;;;;;;;;;5091488;28;20448;-27
2024/01/26 05:59:13;;;;;;;8.23;2.25;;;;;;;;;;5092343;28;20027;-26
2024/01/26 06:01:40;;;;;;;9.05;1.70;;;;;;;;;;5091273;28;20031;-26
2024/01/26 06:04:07;;;;;;;5.25;1.60;;;;;;;;;;5092361;28;20024;-26
2024/01/26 06:06:34;;;;;;;7.25;1.73;;;;;;;;;;5087643;28;20465;-27
2024/01/26 06:09:02;;;;;;;6.00;1.70;;;;;;;;;;5092185;28;20824;-28
2024/01/26 06:11:29;;;;;;;5.07;1.50;;;;;;;;;;5092227;28;20020;-26
2024/01/26 06:13:56;;;;;;;6.35;1.58;;;;;;;;;;5092156;28;20099;-26
2024/01/26 06:16:23;;;;;;;6.03;1.75;;;;;;;;;;5092465;28;20020;-26
2024/01/26 06:18:50;;;;;;;6.95;1.55;;;;;;;;;;5087391;28;20054;-26
2024/01/26 06:21:16;;;;;;;6.13;1.70;;;;;;;;;;5092052;28;20028;-26
2024/01/26 06:23:43;;;;;;;8.35;1.50;;;;;;;;;;5091965;28;20020;-26
2024/01/26 06:26:10;;;;;;;5.28;1.80;;;;;;;;;;5092073;28;20095;-25
2024/01/26 06:28:37;;;;;;;7.80;2.10;;;;;;;;;;5091851;28;20095;-29
2024/01/26 06:31:04;;;;;;;6.88;1.70;;;;;;;;;;5087319;28;20051;-26
2024/01/26 06:33:32;;;;;;;11.13;1.98;;;;;;;;;;5091586;28;20414;-26
2024/01/26 06:35:59;;;;;;;9.65;1.80;;;;;;;;;;5092013;28;20031;-27
2024/01/26 06:38:26;;;;;;;8.55;1.73;;;;;;;;;;5091817;28;20786;-28
2024/01/26 06:40:53;;;;;;;10.32;1.80;;;;;;;;;;5090498;28;20035;-26
2024/01/26 06:43:20;;;;;;;6.45;1.60;;;;;;;;;;5088315;28;20027;-26
2024/01/26 06:45:47;;;;;;;8.32;1.88;;;;;;;;;;5091714;28;20032;-26
2024/01/26 06:48:14;;;;;;;7.82;1.58;;;;;;;;;;5091851;28;20517;-26
2024/01/26 06:50:41;;;;;;;6.93;1.60;;;;;;;;;;5091672;28;20505;-26
2024/01/26 06:53:09;;;;;;;5.72;1.50;;;;;;;;;;5089843;28;20036;-26
2024/01/26 06:55:36;;;;;;;7.75;1.50;;;;;;;;;;5088622;28;20078;-27
2024/01/26 06:58:03;;;;;;;7.57;1.58;;;;;;;;;;5091445;28;20043;-26
2024/01/26 07:00:30;;;;;;;6.43;1.40;;;;;;;;;;5094165;28;20478;-26
2024/01/26 07:02:57;;;;;;;8.20;1.55;;;;;;;;;;5095691;28;20471;-25
2024/01/26 07:05:24;;;;;;;9.35;1.92;;;;;;;;;;5093552;28;20035;-26
2024/01/26 07:07:51;;;;;;;7.15;2.22;;;;;;;;;;5093459;28;20632;-30
2024/01/26 07:10:18;;;;;;;7.30;1.52;;;;;;;;;;5095783;28;20482;-28
2024/01/26 07:12:45;;;;;;;6.30;1.75;;;;;;;;;;5095423;28;20028;-26
2024/01/26 07:15:12;;;;;;;8.05;1.52;;;;;;;;;;5095540;28;20027;-27
2024/01/26 07:17:38;;;;;;;4.95;1.90;;;;;;;;;;5092198;28;20026;-25
2024/01/26 07:20:06;;;;;;;7.93;2.00;;;;;;;;;;5094275;28;20020;-27
2024/01/26 07:22:33;;;;;;;6.05;1.60;;;;;;;;;;5095437;28;20024;-27
2024/01/26 07:25:00;;;;;;;6.88;1.63;;;;;;;;;;5095446;28;20442;-27
2024/01/26 07:27:27;;;;;;;4.20;1.75;;;;;;;;;;5095368;28;20012;-28
2024/01/26 07:29:53;;;;;;;5.45;1.83;;;;;;;;;;5091103;28;20016;-25
2024/01/26 07:32:20;;;;;;;5.95;1.70;;;;;;;;;;5093216;28;20052;-28
2024/01/26 07:34:47;;;;;;;8.05;1.73;;;;;;;;;;5095152;28;20424;-26
2024/01/26 07:37:14;;;;;;;5.70;1.70;;;;;;;;;;5095161;28;20016;-26
2024/01/26 07:39:41;;;;;;;5.30;1.83;;;;;;;;;;5094986;28;20020;-26
2024/01/26 07:42:08;;;;;;;4.28;1.52;;;;;;;;;;5090631;28;20028;-27
2024/01/26 07:44:35;;;;;;;9.15;1.70;;;;;;;;;;5094951;28;20028;-26
2024/01/26 07:47:02;;;;;;;7.60;1.60;;;;;;;;;;5094986;28;20457;-26
2024/01/26 07:49:29;;;;;;;8.00;2.00;;;;;;;;;;5094920;28;20385;-26
2024/01/26 07:51:56;;;;;;;6.13;1.92;;;;;;;;;;5094907;28;20028;-27
2024/01/26 07:54:23;;;;;;;4.05;1.83;;;;;;;;;;5090158;28;20101;-27
2024/01/26 07:56:50;;;;;;;4.82;1.45;;;;;;;;;;5094683;28;20430;-27
2024/01/26 07:59:17;;;;;;;8.52;1.90;;;;;;;;;;5094690;28;20024;-27
2024/01/26 08:01:43;;;;;;;5.10;1.27;;;;;;;;;;5094756;28;20035;-28
2024/01/26 08:04:10;;;;;;;5.57;1.45;;;;;;;;;;5094395;28;20023;-26
2024/01/26 08:06:37;;;;;;;8.60;1.63;;;;;;;;;;5090484;28;20074;-26
2024/01/26 08:09:04;;;;;;;5.35;1.65;;;;;;;;;;5094512;28;20027;-27
2024/01/26 08:11:31;;;;;;;7.47;1.50;;;;;;;;;;5093270;28;20060;-26
2024/01/26 08:14:00;;;;;;;7.47;1.65;;;;;;;;;;5094447;28;20469;-27
2024/01/26 08:16:27;;;;;;;6.47;1.70;;;;;;;;;;5093092;28;20028;-26
2024/01/26 08:18:54;;;;;;;5.72;1.80;;;;;;;;;;5090815;28;20736;-28
2024/01/26 08:21:22;;;;;;;5.47;1.50;;;;;;;;;;5094398;28;20187;-26
2024/01/26 08:23:49;;;;;;;3.92;1.45;;;;;;;;;;5094065;28;20471;-26
2024/01/26 08:26:16;;;;;;;6.32;1.55;;;;;;;;;;5094253;28;20020;-27
2024/01/26 08:28:43;;;;;;;6.30;1.60;;;;;;;;;;5092199;28;20024;-26
2024/01/26 08:31:10;;;;;;;4.25;1.60;;;;;;;;;;5091276;28;20052;-27
2024/01/26 08:33:37;;;;;;;5.35;1.77;;;;;;;;;;5093879;28;20381;-27
2024/01/26 08:36:04;;;;;;;7.57;1.90;;;;;;;;;;5094022;28;20023;-26
2024/01/26 08:38:31;;;;;;;8.07;1.60;;;;;;;;;;5093922;28;20386;-26
2024/01/26 08:40:58;;;;;;;7.35;1.88;;;;;;;;;;5090980;28;20051;-26
2024/01/26 08:43:25;;;;;;;8.98;1.83;;;;;;;;;;5092032;28;20063;-26
2024/01/26 08:45:53;;;;;;;5.20;1.60;;;;;;;;;;5093917;28;20051;-28
2024/01/26 08:48:20;;;;;;;5.55;1.77;;;;;;;;;;5093719;28;20024;-26
2024/01/26 08:50:47;;;;;;;8.55;1.92;;;;;;;;;;5093777;28;20051;-26
2024/01/26 08:53:14;;;;;;;4.88;1.50;;;;;;;;;;5089981;28;20032;-26
2024/01/26 08:55:41;;;;;;;4.55;1.30;;;;;;;;;;5092645;28;20085;-26
2024/01/26 08:58:08;;;;;;;7.53;1.52;;;;;;;;;;5093554;28;20024;-26
2024/01/26 09:00:35;;;;;;;6.82;1.70;;;;;;;;;;5093654;28;20027;-26
2024/01/26 09:03:02;;;;;;;7.97;1.77;;;;;;;;;;5093401;28;20032;-27
2024/01/26 09:05:30;;;;;;;5.65;1.58;;;;;;;;;;5089269;28;20413;-27
2024/01/26 09:07:57;;;;;;;7.00;1.85;;;;;;;;;;5092893;28;20047;-27
2024/01/26 09:10:24;;;;;;;6.05;1.48;;;;;;;;;;5093416;28;20486;-28
2024/01/26 09:12:51;;;;;;;8.35;1.65;;;;;;;;;;5093074;28;20039;-26
2024/01/26 09:15:18;;;;;;;5.85;1.65;;;;;;;;;;5093314;28;20034;-27
2024/01/26 09:17:44;;;;;;;4.03;1.05;;;;;;;;;;5088515;28;20030;-27
2024/01/26 09:20:12;;;;;;;4.35;1.27;;;;;;;;;;5093275;28;20046;-27
2024/01/26 09:22:39;;;;;;;6.18;1.50;;;;;;;;;;5092870;28;20024;-26
2024/01/26 09:25:06;;;;;;;4.38;1.42;;;;;;;;;;5093125;28;20059;-27
2024/01/26 09:27:33;;;;;;;6.78;1.70;;;;;;;;;;5093074;28;20071;-27
2024/01/26 09:30:01;;;;;;;7.57;2.10;;;;;;;;;;5088574;28;20073;-27
2024/01/26 09:32:28;;;;;;;4.78;1.50;;;;;;;;;;5092828;28;20032;-26
2024/01/26 09:34:55;;;;;;;3.95;1.50;;;;;;;;;;5093032;28;20066;-26
2024/01/26 09:37:22;;;;;;;5.70;1.40;;;;;;;;;;5092915;28;20076;-27
2024/01/26 09:39:49;;;;;;;3.45;1.40;;;;;;;;;;5092064;28;20110;-26
2024/01/26 09:42:16;;;;;;;5.55;1.27;;;;;;;;;;5089071;28;20774;-27
2024/01/26 09:44:43;;;;;;;4.60;1.20;;;;;;;;;;5092656;28;20051;-27
2024/01/26 09:47:15;;;;;;;5.88;1.75;;;;;;;;;;5092744;28;20082;-27
2024/01/26 09:50:02;;;;;;;5.85;1.63;;;;;;;;;;5092902;28;20112;-27
2024/01/26 09:52:30;;;;;;;5.03;1.60;;;;;;;;;;5089595;28;20059;-26
2024/01/26 09:54:57;;;;;;;5.60;1.38;;;;;;;;;;5090994;28;20486;-27
2024/01/26 09:57:24;;;;;;;7.35;1.42;;;;;;;;;;5092547;28;20032;-26
2024/01/26 09:59:53;;;;;;;8.63;1.55;;;;;;;;;;5092416;28;20078;-27
2024/01/26 10:02:22;;;;;;;5.82;1.77;;;;;;;;;;5092272;28;20485;-27
2024/01/26 10:04:49;;;;;;;5.63;1.60;;;;;;;;;;5088692;28;20024;-26
2024/01/26 10:07:16;;;;;;;8.15;1.60;;;;;;;;;;5091614;28;20031;-26
2024/01/26 10:09:44;;;;;;;5.32;1.50;;;;;;;;;;5092257;28;20111;-28
2024/01/26 10:12:11;;;;;;;4.32;1.40;;;;;;;;;;5092093;28;20028;-29
2024/01/26 10:14:38;;;;;;;7.70;1.65;;;;;;;;;;5092205;28;20024;-27
2024/01/26 10:17:05;;;;;;;8.25;1.50;;;;;;;;;;5088105;28;20095;-28
2024/01/26 10:19:34;;;;;;;6.53;1.67;;;;;;;;;;5091865;28;20036;-27
2024/01/26 10:22:01;;;;;;;5.63;1.90;;;;;;;;;;5091949;28;20097;-27
2024/01/26 10:24:28;;;;;;;6.72;1.40;;;;;;;;;;5092122;28;20032;-28
2024/01/26 10:26:55;;;;;;;5.90;1.40;;;;;;;;;;5091786;28;20511;-27
2024/01/26 10:29:23;;;;;;;8.35;1.40;;;;;;;;;;5088172;28;20028;-27
2024/01/26 10:31:51;;;;;;;3.38;1.50;;;;;;;;;;5091729;28;20048;-27
2024/01/26 10:34:18;;;;;;;6.03;1.40;;;;;;;;;;5091148;28;20055;-27
2024/01/26 10:36:46;;;;;;;10.20;1.77;;;;;;;;;;5091612;28;20039;-27
2024/01/26 10:39:18;;;;;;;4.72;1.27;;;;;;;;;;5091348;28;20516;-27
2024/01/26 10:41:47;;;;;;;3.63;1.48;;;;;;;;;;5086649;28;20504;-26
2024/01/26 10:44:15;;;;;;;3.83;1.55;;;;;;;;;;5091719;28;20077;-27
2024/01/26 10:46:42;;;;;;;4.75;1.50;;;;;;;;;;5091716;28;20024;-26
2024/01/26 10:49:13;;;;;;;5.70;1.40;;;;;;;;;;5091744;28;20032;-26
2024/01/26 10:51:43;;;;;;;6.85;1.50;;;;;;;;;;5090256;28;20031;-26
2024/01/26 10:54:11;;;;;;;6.63;1.30;;;;;;;;;;5088586;28;20028;-27
2024/01/26 10:56:41;;;;;;;5.63;1.50;;;;;;;;;;5091637;28;20099;-27
2024/01/26 10:59:10;;;;;;;4.82;1.45;;;;;;;;;;5091541;28;20028;-26
2024/01/26 11:01:40;;;;;;;5.88;1.70;;;;;;;;;;5091508;28;20063;-27
2024/01/26 11:04:08;;;;;;;7.68;1.70;;;;;;;;;;5088819;28;20632;-26
2024/01/26 11:06:35;;;;;;;9.95;1.45;;;;;;;;;;5089935;28;20028;-27
2024/01/26 11:09:11;;;;;;;9.52;2.00;;;;;;;;;;5091469;28;20489;-28
2024/01/26 11:11:41;;;;;;;9.32;1.98;;;;;;;;;;5091426;28;20031;-26
2024/01/26 11:14:12;;;;;;;7.20;1.83;;;;;;;;;;5091499;28;20091;-28
2024/01/26 11:16:44;;;;;;;9.63;1.83;;;;;;;;;;5087366;28;20494;-28
2024/01/26 11:19:22;;;;;;;10.13;1.85;;;;;;;;;;5090978;28;20024;-28
2024/01/26 11:21:49;;;;;;;6.32;1.50;;;;;;;;;;5091374;28;20090;-27
2024/01/26 11:24:17;;;;;;;10.18;1.83;;;;;;;;;;5091376;28;20482;-27
2024/01/26 11:27:04;;;;;;;9.27;1.98;;;;;;;;;;5091388;28;20393;-26
2024/01/26 11:29:32;;;;;;;7.45;1.75;;;;;;;;;;5087310;28;20040;-27
2024/01/26 11:31:59;;;;;;;11.10;1.70;;;;;;;;;;5091119;28;20048;-26
2024/01/26 11:34:27;;;;;;;12.38;2.08;;;;;;;;;;5091342;28;20384;-26
2024/01/26 11:37:13;;;;;;;12.82;2.10;;;;;;;;;;5091076;28;20032;-26
2024/01/26 11:39:41;;;;;;;21.42;2.97;;;;;;;;;;5086871;28;20032;-27
2024/01/26 11:42:11;;;;;;;24.02;3.20;;;;;;;;;;5090759;28;20032;-27
2024/01/26 11:44:40;;;;;;;21.75;3.13;;;;;;;;;;5091282;28;20036;-26
2024/01/26 11:47:13;;;;;;;28.42;3.10;;;;;;;;;;5094414;28;20025;-27
2024/01/26 11:49:41;;;;;;;27.02;3.25;;;;;;;;;;5094814;28;20028;-27
2024/01/26 11:52:08;;;;;;;24.75;2.63;;;;;;;;;;5090222;28;20073;-29
2024/01/26 11:54:35;;;;;;;29.77;3.75;;;;;;;;;;5094916;28;20035;-28
2024/01/26 11:57:02;;;;;;;47.28;5.22;;;;;;;;;;5094810;28;20028;-26
2024/01/26 11:59:30;;;;;;;51.20;5.35;;;;;;;;;;5094894;28;20089;-26
2024/01/26 12:01:57;;;;;;;59.85;5.78;;;;;;;;;;5093167;28;20040;-26
2024/01/26 12:04:24;;;;;;;69.68;5.88;;;;;;;;;;5090434;28;20024;-28
2024/01/26 12:06:52;;;;;;;60.50;5.78;;;;;;;;;;5094534;28;20422;-26
2024/01/26 12:09:19;;;;;;;49.28;5.40;;;;;;;;;;5094612;28;20024;-27
2024/01/26 12:11:46;;;;;;;72.68;6.88;;;;;;;;;;5094507;28;20463;-26
2024/01/26 12:14:13;;;;;;;56.97;6.50;;;;;;;;;;5093255;28;20482;-27
2024/01/26 12:16:41;;;;;;;79.38;6.07;;;;;;;;;;5091026;28;20028;-26
2024/01/26 12:19:07;;;;;;;62.42;5.70;;;;;;;;;;5094502;28;20118;-26
2024/01/26 12:21:36;;;;;;;58.03;5.68;;;;;;;;;;5094417;28;20028;-26
2024/01/26 12:24:09;;;;;;;66.43;5.72;;;;;;;;;;5094180;28;20023;-28
2024/01/26 12:26:36;;;;;;;66.72;6.55;;;;;;;;;;5091815;28;20028;-27
2024/01/26 12:29:03;;;;;;;54.60;5.38;;;;;;;;;;5091922;28;20081;-26
2024/01/26 12:31:32;;;;;;;60.08;5.53;;;;;;;;;;5093957;28;20044;-27
2024/01/26 12:34:01;;;;;;;52.38;5.82;;;;;;;;;;5093995;28;20039;-26
2024/01/26 12:36:34;;;;;;;70.00;6.18;;;;;;;;;;5093955;28;20035;-27
2024/01/26 12:39:01;;;;;;;65.63;6.70;;;;;;;;;;5090213;28;20267;-28
2024/01/26 12:41:28;;;;;;;68.53;6.32;;;;;;;;;;5093253;28;20482;-26
2024/01/26 12:43:56;;;;;;;69.47;5.75;;;;;;;;;;5093925;28;20095;-31
2024/01/26 12:46:24;;;;;;;60.28;6.30;;;;;;;;;;5093767;28;20035;-27
2024/01/26 12:48:51;;;;;;;77.50;6.88;;;;;;;;;;5093586;28;20035;-27
2024/01/26 12:51:19;;;;;;;77.53;6.60;;;;;;;;;;5089315;28;20024;-26
2024/01/26 12:53:45;;;;;;;73.50;6.50;;;;;;;;;;5093483;28;20032;-27
2024/01/26 12:56:13;;;;;;;76.07;6.60;;;;;;;;;;5093739;28;20024;-26
2024/01/26 12:58:40;;;;;;;66.57;6.80;;;;;;;;;;5093004;28;20028;-28
2024/01/26 13:01:07;;;;;;;59.17;5.85;;;;;;;;;;5093450;28;20117;-27
2024/01/26 13:03:35;;;;;;;61.92;6.20;;;;;;;;;;5089080;28;20043;-28
2024/01/26 13:06:02;;;;;;;70.07;6.38;;;;;;;;;;5093614;28;20024;-27
2024/01/26 13:08:29;;;;;;;63.63;6.60;;;;;;;;;;5093600;28;20530;-26
2024/01/26 13:10:56;;;;;;;52.50;5.70;;;;;;;;;;5093414;28;20028;-26
2024/01/26 13:13:24;;;;;;;57.88;5.75;;;;;;;;;;5092890;28;20032;-27
2024/01/26 13:15:52;;;;;;;52.45;5.72;;;;;;;;;;5089061;28;20101;-26
2024/01/26 13:18:19;;;;;;;42.30;5.30;;;;;;;;;;5091807;28;20054;-26
2024/01/26 13:20:46;;;;;;;33.10;3.88;;;;;;;;;;5093301;28;20027;-26
2024/01/26 13:23:13;;;;;;;45.75;4.47;;;;;;;;;;5091748;28;20028;-27
2024/01/26 13:25:40;;;;;;;49.03;4.20;;;;;;;;;;5092128;28;20066;-26
2024/01/26 13:28:06;;;;;;;40.45;4.53;;;;;;;;;;5089638;28;20095;-27
2024/01/26 13:30:33;;;;;;;41.60;4.40;;;;;;;;;;5093001;28;20048;-27
2024/01/26 13:33:01;;;;;;;38.50;4.13;;;;;;;;;;5092648;28;20036;-27
2024/01/26 13:35:28;;;;;;;32.83;3.47;;;;;;;;;;5092982;28;20036;-26
2024/01/26 13:37:55;;;;;;;32.30;3.70;;;;;;;;;;5091341;28;20126;-26
2024/01/26 13:40:22;;;;;;;30.92;3.78;;;;;;;;;;5089920;28;20105;-26
2024/01/26 13:42:49;;;;;;;36.83;4.60;;;;;;;;;;5092739;28;20028;-27
2024/01/26 13:45:16;;;;;;;40.50;4.75;;;;;;;;;;5092865;28;20529;-28
2024/01/26 13:47:43;;;;;;;39.65;4.45;;;;;;;;;;5092835;28;20028;-26
2024/01/26 13:50:10;;;;;;;45.70;5.07;;;;;;;;;;5090520;28;20028;-25
2024/01/26 13:52:37;;;;;;;41.63;4.63;;;;;;;;;;5090310;28;20023;-26
2024/01/26 13:55:04;;;;;;;31.90;4.70;;;;;;;;;;5092559;28;20111;-26
2024/01/26 13:57:31;;;;;;;52.10;4.70;;;;;;;;;;5092611;28;20027;-26
2024/01/26 13:59:58;;;;;;;37.45;4.30;;;;;;;;;;5092445;28;20126;-29
2024/01/26 14:02:25;;;;;;;34.45;4.25;;;;;;;;;;5088933;28;20438;-27
2024/01/26 14:04:52;;;;;;;40.70;5.05;;;;;;;;;;5091346;28;20493;-27
2024/01/26 14:07:20;;;;;;;47.97;5.28;;;;;;;;;;5091981;28;20496;-26
2024/01/26 14:09:48;;;;;;;47.17;4.95;;;;;;;;;;5091165;28;20040;-26
2024/01/26 14:12:16;;;;;;;49.75;4.45;;;;;;;;;;5091945;28;20064;-27
2024/01/26 14:14:43;;;;;;;31.60;4.35;;;;;;;;;;5087971;28;20027;-28
2024/01/26 14:17:10;;;;;;;36.55;4.75;;;;;;;;;;5090393;28;20390;-27
2024/01/26 14:19:37;;;;;;;40.25;4.93;;;;;;;;;;5092031;28;20032;-26
2024/01/26 14:22:04;;;;;;;34.85;4.57;;;;;;;;;;5092093;28;20127;-27
2024/01/26 14:24:31;;;;;;;39.60;4.75;;;;;;;;;;5090718;28;20078;-26
2024/01/26 14:26:58;;;;;;;39.28;4.60;;;;;;;;;;5087357;28;20111;-28
2024/01/26 14:29:26;;;;;;;35.10;4.63;;;;;;;;;;5091952;28;20032;-26
2024/01/26 14:31:53;;;;;;;33.78;5.68;;;;;;;;;;5091566;28;20122;-27
2024/01/26 14:34:25;;;;;;;35.22;4.00;;;;;;;;;;5092020;28;20046;-27
2024/01/26 14:36:52;;;;;;;;;;;;;;;;;;5092168;28;20028;-27
2024/01/26 14:39:19;;;;;;;30.17;3.75;;;;;;;;;;5086841;28;19912;-26